createdAt,value
2018-04-26T00:00:51.371Z,14.80
2018-04-26T00:03:18.819Z,14.80
2018-04-26T00:05:46.257Z,14.80
2018-04-26T00:08:13.699Z,14.70
2018-04-26T00:10:42.154Z,14.60
2018-04-26T00:13:09.602Z,14.60
2018-04-26T00:15:37.046Z,14.20
2018-04-26T00:18:04.499Z,13.70
2018-04-26T00:37:49.393Z,13.90
2018-04-26T00:40:16.850Z,13.90
2018-04-26T00:42:44.293Z,13.90
2018-04-26T00:45:11.750Z,14.20
2018-04-26T00:47:39.183Z,13.90
2018-04-26T00:50:06.649Z,14.10
2018-04-26T00:52:34.079Z,14.20
2018-04-26T00:55:01.531Z,14.20
2018-04-26T00:57:28.984Z,14.30
2018-04-26T00:59:56.408Z,14.10
2018-04-26T01:02:23.855Z,14.20
2018-04-26T01:04:51.329Z,14.10
2018-04-26T01:07:18.756Z,14.00
2018-04-26T01:09:46.288Z,13.90
2018-04-26T01:12:13.747Z,13.90
2018-04-26T01:14:41.200Z,13.80
2018-04-26T01:17:08.631Z,13.80
2018-04-26T01:19:36.092Z,13.90
2018-04-26T01:22:03.540Z,13.80
2018-04-26T01:24:30.992Z,13.80
2018-04-26T01:26:58.447Z,13.80
2018-04-26T01:29:25.882Z,13.80
2018-04-26T01:31:53.315Z,13.80
2018-04-26T01:34:20.765Z,13.70
2018-04-26T01:54:12.065Z,13.60
2018-04-26T01:56:39.503Z,13.50
2018-04-26T01:59:06.936Z,13.60
2018-04-26T02:01:34.398Z,13.60
2018-04-26T02:04:01.842Z,13.50
2018-04-26T02:06:29.306Z,13.50
2018-04-26T02:08:56.760Z,13.50
2018-04-26T02:11:24.213Z,13.30
2018-04-26T02:13:51.644Z,13.20
2018-04-26T02:16:19.083Z,13.20
2018-04-26T02:18:46.519Z,13.20
2018-04-26T02:21:14.059Z,13.10
2018-04-26T02:23:41.420Z,13.20
2018-04-26T02:26:08.869Z,13.30
2018-04-26T02:28:36.301Z,13.30
2018-04-26T02:31:04.513Z,13.30
2018-04-26T02:33:31.978Z,13.20
2018-04-26T02:35:59.441Z,13.30
2018-04-26T02:38:26.880Z,13.20
2018-04-26T02:40:55.110Z,13.20
2018-04-26T02:43:22.570Z,13.20
2018-04-26T02:45:50.097Z,13.20
2018-04-26T02:48:17.478Z,13.20
2018-04-26T02:50:44.921Z,13.30
2018-04-26T02:53:12.360Z,13.20
2018-04-26T02:55:40.562Z,13.10
2018-04-26T02:58:08.025Z,13.10
2018-04-26T03:00:35.485Z,13.10
2018-04-26T03:03:02.950Z,13.10
2018-04-26T03:05:30.392Z,13.00
2018-04-26T03:07:58.623Z,13.00
2018-04-26T03:10:26.076Z,13.00
2018-04-26T03:12:53.579Z,13.00
2018-04-26T03:15:21.040Z,13.00
2018-04-26T03:17:48.480Z,12.90
2018-04-26T03:20:15.918Z,12.90
2018-04-26T03:22:43.360Z,12.80
2018-04-26T03:25:10.799Z,12.80
2018-04-26T03:27:39.011Z,12.70
2018-04-26T03:30:06.460Z,12.70
2018-04-26T03:32:33.929Z,12.70
2018-04-26T03:35:01.396Z,12.60
2018-04-26T03:37:28.849Z,12.60
2018-04-26T03:39:56.305Z,12.70
2018-04-26T03:42:24.520Z,12.60
2018-04-26T03:44:51.992Z,12.60
2018-04-26T03:47:19.463Z,12.50
2018-04-26T03:49:46.899Z,12.50
2018-04-26T03:52:14.353Z,12.50
2018-04-26T03:54:41.816Z,12.40
2018-04-26T03:57:09.279Z,12.40
2018-04-26T03:59:48.759Z,12.20
2018-04-26T04:02:28.069Z,12.20
2018-04-26T04:05:07.461Z,12.10
2018-04-26T04:07:34.928Z,12.10
2018-04-26T04:10:02.377Z,12.10
2018-04-26T04:12:30.609Z,12.10
2018-04-26T04:14:58.062Z,12.10
2018-04-26T04:17:25.501Z,12.10
2018-04-26T04:19:52.946Z,12.10
2018-04-26T04:22:21.161Z,11.90
2018-04-26T04:24:48.610Z,12.00
2018-04-26T04:27:16.056Z,11.90
2018-04-26T04:29:44.268Z,11.90
2018-04-26T04:32:11.721Z,11.90
2018-04-26T04:34:39.164Z,11.90
2018-04-26T04:37:06.625Z,11.90
2018-04-26T04:39:34.082Z,11.90
2018-04-26T04:42:02.305Z,11.80
2018-04-26T04:44:29.756Z,11.80
2018-04-26T04:46:57.217Z,11.80
2018-04-26T04:49:24.668Z,11.80
2018-04-26T04:51:52.168Z,11.80
2018-04-26T04:54:19.611Z,11.80
2018-04-26T04:56:47.060Z,11.80
2018-04-26T04:59:14.510Z,11.70
2018-04-26T05:01:41.955Z,11.70
2018-04-26T05:04:10.167Z,11.80
2018-04-26T05:06:37.601Z,11.80
2018-04-26T05:09:05.081Z,12.00
2018-04-26T05:11:32.543Z,12.10
2018-04-26T05:14:00.015Z,12.10
2018-04-26T05:16:27.456Z,12.20
2018-04-26T05:18:54.917Z,12.40
2018-04-26T05:21:22.370Z,12.30
2018-04-26T05:23:50.599Z,12.40
2018-04-26T05:26:18.064Z,12.40
2018-04-26T05:28:45.500Z,12.40
2018-04-26T05:31:12.951Z,12.50
2018-04-26T05:33:40.479Z,12.40
2018-04-26T05:36:07.858Z,12.40
2018-04-26T05:38:36.064Z,12.50
2018-04-26T05:41:03.531Z,12.50
2018-04-26T05:43:30.984Z,12.50
2018-04-26T05:45:58.432Z,12.40
2018-04-26T05:48:25.878Z,12.50
2018-04-26T05:50:54.131Z,12.50
2018-04-26T05:53:21.564Z,12.50
2018-04-26T05:55:49.793Z,12.40
2018-04-26T05:58:17.227Z,12.40
2018-04-26T06:00:44.690Z,12.40
2018-04-26T06:03:12.148Z,12.30
2018-04-26T06:05:39.593Z,12.10
2018-04-26T06:08:07.045Z,12.10
2018-04-26T06:10:34.502Z,12.20
2018-04-26T06:13:01.953Z,12.20
2018-04-26T06:15:29.412Z,12.10
2018-04-26T06:17:56.869Z,12.00
2018-04-26T06:20:25.088Z,11.90
2018-04-26T06:22:53.303Z,12.00
2018-04-26T06:25:20.731Z,11.90
2018-04-26T06:27:48.192Z,12.00
2018-04-26T06:30:15.635Z,12.10
2018-04-26T06:32:43.077Z,12.10
2018-04-26T06:35:11.288Z,12.10
2018-04-26T06:37:38.744Z,12.10
2018-04-26T06:40:06.199Z,12.10
2018-04-26T06:42:34.261Z,12.10
2018-04-26T06:45:02.462Z,12.10
2018-04-26T06:47:29.932Z,12.10
2018-04-26T06:50:01.085Z,12.10
2018-04-26T06:52:29.374Z,12.10
2018-04-26T06:54:57.476Z,12.10
2018-04-26T06:57:24.932Z,12.20
2018-04-26T06:59:54.404Z,12.20
2018-04-26T07:02:22.275Z,12.20
2018-04-26T07:04:50.821Z,12.40
2018-04-26T07:07:18.281Z,12.40
2018-04-26T07:09:45.719Z,12.10
2018-04-26T07:12:13.177Z,11.90
2018-04-26T07:14:40.637Z,12.00
2018-04-26T07:17:08.100Z,12.20
2018-04-26T07:19:35.550Z,12.30
2018-04-26T07:22:03.025Z,12.30
2018-04-26T07:24:30.464Z,12.20
2018-04-26T07:26:57.942Z,12.40
2018-04-26T07:29:25.402Z,12.50
2018-04-26T07:31:52.846Z,12.80
2018-04-26T07:34:20.332Z,13.00
2018-04-26T07:36:47.800Z,12.90
2018-04-26T07:39:15.247Z,12.90
2018-04-26T07:41:42.694Z,12.80
2018-04-26T07:44:10.161Z,12.70
2018-04-26T07:46:37.624Z,12.80
2018-04-26T07:49:05.107Z,12.90
2018-04-26T07:51:32.577Z,12.90
2018-04-26T07:54:00.032Z,13.00
2018-04-26T07:56:27.483Z,12.80
2018-04-26T07:58:54.942Z,12.80
2018-04-26T08:01:22.393Z,13.00
2018-04-26T08:03:49.846Z,13.10
2018-04-26T08:06:17.317Z,13.00
2018-04-26T08:08:44.771Z,12.70
2018-04-26T08:11:12.228Z,12.70
2018-04-26T08:13:39.689Z,12.70
2018-04-26T08:16:07.269Z,12.60
2018-04-26T08:18:34.713Z,12.60
2018-04-26T08:21:02.951Z,12.30
2018-04-26T08:23:30.383Z,12.30
2018-04-26T08:25:57.859Z,12.20
2018-04-26T08:28:25.327Z,12.30
2018-04-26T08:30:52.778Z,12.30
2018-04-26T08:33:20.233Z,12.40
2018-04-26T08:35:47.671Z,12.50
2018-04-26T08:38:15.145Z,12.70
2018-04-26T08:40:42.637Z,12.60
2018-04-26T08:43:10.074Z,12.60
2018-04-26T08:45:37.620Z,12.50
2018-04-26T08:48:04.997Z,12.60
2018-04-26T08:50:32.443Z,12.60
2018-04-26T08:53:00.564Z,12.80
2018-04-26T08:55:28.020Z,13.00
2018-04-26T08:57:55.459Z,13.20
2018-04-26T09:00:22.935Z,13.30
2018-04-26T09:02:50.422Z,13.30
2018-04-26T09:05:17.880Z,13.20
2018-04-26T09:07:45.324Z,13.30
2018-04-26T09:10:12.775Z,13.30
2018-04-26T09:12:40.254Z,13.30
2018-04-26T09:15:07.693Z,13.40
2018-04-26T09:17:35.137Z,13.40
2018-04-26T09:20:03.364Z,13.60
2018-04-26T09:22:30.817Z,13.60
2018-04-26T09:24:58.276Z,13.80
2018-04-26T09:27:25.731Z,13.80
2018-04-26T09:29:53.179Z,13.80
2018-04-26T09:32:20.657Z,14.00
2018-04-26T09:34:48.138Z,13.80
2018-04-26T09:37:15.591Z,13.70
2018-04-26T09:39:43.044Z,13.70
2018-04-26T09:42:10.498Z,13.90
2018-04-26T09:44:37.941Z,14.10
2018-04-26T09:47:05.396Z,14.20
2018-04-26T09:49:33.615Z,14.10
2018-04-26T09:52:01.068Z,14.10
2018-04-26T09:54:28.532Z,14.20
2018-04-26T09:56:56.005Z,14.30
2018-04-26T09:59:23.478Z,14.60
2018-04-26T10:02:05.832Z,14.80
2018-04-26T10:04:39.740Z,14.70
2018-04-26T10:07:08.793Z,14.50
2018-04-26T10:09:36.236Z,14.50
2018-04-26T10:12:03.697Z,14.40
2018-04-26T10:14:31.248Z,14.50
2018-04-26T10:16:58.793Z,14.60
2018-04-26T10:19:27.890Z,14.70
2018-04-26T10:21:55.378Z,14.70
2018-04-26T10:24:22.880Z,15.00
2018-04-26T10:26:50.382Z,15.40
2018-04-26T10:29:18.660Z,15.00
2018-04-26T10:31:47.389Z,15.00
2018-04-26T10:34:14.838Z,15.20
2018-04-26T10:36:42.402Z,15.40
2018-04-26T10:39:09.863Z,15.30
2018-04-26T10:41:37.309Z,15.20
2018-04-26T10:44:04.744Z,14.90
2018-04-26T10:46:32.184Z,14.80
2018-04-26T10:48:59.705Z,14.50
2018-04-26T10:51:27.154Z,14.90
2018-04-26T10:53:55.392Z,14.90
2018-04-26T10:56:22.840Z,14.90
2018-04-26T10:58:50.308Z,15.30
2018-04-26T11:01:17.762Z,15.30
2018-04-26T11:03:45.239Z,14.60
2018-04-26T11:06:12.692Z,14.80
2018-04-26T11:08:40.133Z,15.10
2018-04-26T11:11:07.589Z,14.90
2018-04-26T11:13:35.042Z,15.20
2018-04-26T11:16:02.494Z,15.30
2018-04-26T11:18:29.968Z,15.40
2018-04-26T11:20:57.426Z,15.00
2018-04-26T11:23:24.908Z,15.30
2018-04-26T11:25:52.369Z,15.70
2018-04-26T11:28:19.829Z,15.80
2018-04-26T11:30:47.293Z,15.80
2018-04-26T11:33:14.744Z,15.90
2018-04-26T11:35:42.201Z,15.90
2018-04-26T11:38:09.655Z,16.00
2018-04-26T11:40:37.864Z,16.00
2018-04-26T11:43:05.319Z,16.00
2018-04-26T11:45:32.770Z,15.80
2018-04-26T11:48:00.218Z,15.50
2018-04-26T11:50:28.428Z,15.80
2018-04-26T11:52:55.904Z,15.80
2018-04-26T11:55:23.354Z,15.90
2018-04-26T11:57:50.864Z,15.80
2018-04-26T12:00:18.299Z,15.60
2018-04-26T12:02:45.769Z,15.60
2018-04-26T12:05:13.192Z,15.30
2018-04-26T12:07:40.708Z,15.80
2018-04-26T12:10:08.108Z,16.10
2018-04-26T12:12:35.574Z,16.30
2018-04-26T12:15:03.028Z,16.80
2018-04-26T12:17:31.237Z,16.30
2018-04-26T12:19:58.685Z,16.30
2018-04-26T12:22:26.144Z,16.00
2018-04-26T12:24:53.607Z,15.90
2018-04-26T12:27:21.049Z,15.50
2018-04-26T12:29:49.256Z,16.20
2018-04-26T12:32:16.705Z,16.10
2018-04-26T12:34:44.183Z,16.30
2018-04-26T12:37:12.384Z,16.70
2018-04-26T12:39:39.844Z,16.70
2018-04-26T12:42:07.294Z,17.00
2018-04-26T12:44:35.499Z,17.10
2018-04-26T12:47:02.972Z,17.10
2018-04-26T12:49:30.436Z,16.30
2018-04-26T12:51:57.908Z,15.80
2018-04-26T12:54:25.357Z,15.90
2018-04-26T12:56:52.805Z,16.50
2018-04-26T12:59:20.279Z,16.40
2018-04-26T13:01:47.730Z,16.70
2018-04-26T13:04:15.167Z,16.90
2018-04-26T13:06:42.616Z,17.40
2018-04-26T13:09:10.087Z,17.60
2018-04-26T13:11:37.522Z,17.60
2018-04-26T13:14:05.738Z,16.60
2018-04-26T13:16:33.191Z,16.50
2018-04-26T13:19:00.614Z,16.40
2018-04-26T13:21:28.844Z,16.20
2018-04-26T13:23:56.286Z,16.20
2018-04-26T13:26:23.728Z,16.40
2018-04-26T13:28:51.929Z,16.30
2018-04-26T13:31:19.507Z,16.20
2018-04-26T13:33:46.932Z,16.50
2018-04-26T13:36:15.217Z,16.60
2018-04-26T13:38:42.597Z,16.60
2018-04-26T13:41:10.072Z,16.30
2018-04-26T13:43:37.524Z,16.20
2018-04-26T13:46:05.010Z,16.40
2018-04-26T13:48:32.422Z,16.50
2018-04-26T13:51:00.653Z,16.70
2018-04-26T13:53:28.100Z,16.70
2018-04-26T13:55:55.572Z,17.00
2018-04-26T13:58:23.028Z,17.10
2018-04-26T14:00:50.486Z,16.90
2018-04-26T14:03:17.964Z,17.10
2018-04-26T14:05:45.414Z,17.40
2018-04-26T14:08:12.868Z,17.30
2018-04-26T14:10:40.342Z,17.30
2018-04-26T14:13:07.788Z,17.30
2018-04-26T14:15:35.246Z,17.20
2018-04-26T14:18:02.714Z,17.10
2018-04-26T14:20:30.922Z,17.00
2018-04-26T14:22:58.410Z,17.00
2018-04-26T14:25:25.840Z,16.80
2018-04-26T14:27:53.795Z,17.00
2018-04-26T14:30:21.246Z,17.20
2018-04-26T14:32:49.481Z,16.50
2018-04-26T14:35:16.911Z,16.40
2018-04-26T14:37:44.357Z,16.40
2018-04-26T14:40:11.790Z,16.40
2018-04-26T14:42:40.014Z,16.20
2018-04-26T14:45:07.450Z,16.20
2018-04-26T14:47:34.892Z,16.00
2018-04-26T14:50:03.104Z,16.80
2018-04-26T14:52:30.567Z,16.80
2018-04-26T14:54:57.996Z,16.70
2018-04-26T14:57:26.216Z,17.30
2018-04-26T14:59:53.655Z,17.30
2018-04-26T15:02:21.131Z,17.60
2018-04-26T15:04:48.601Z,17.20
2018-04-26T15:07:16.071Z,17.30
2018-04-26T15:09:43.520Z,16.50
2018-04-26T15:12:10.984Z,16.60
2018-04-26T15:14:38.426Z,16.40
2018-04-26T15:17:05.878Z,16.30
2018-04-26T15:19:34.096Z,16.30
2018-04-26T15:22:02.329Z,15.80
2018-04-26T15:24:30.604Z,16.00
2018-04-26T15:26:58.075Z,16.00
2018-04-26T15:29:31.318Z,16.80
2018-04-26T15:32:00.362Z,16.80
2018-04-26T15:34:28.688Z,17.10
2018-04-26T15:36:56.144Z,17.10
2018-04-26T15:39:23.698Z,16.80
2018-04-26T15:41:51.145Z,17.00
2018-04-26T15:44:19.433Z,16.10
2018-04-26T15:46:46.820Z,16.10
2018-04-26T15:49:14.316Z,16.50
2018-04-26T15:51:41.776Z,16.60
2018-04-26T15:54:21.138Z,16.70
2018-04-26T15:57:01.328Z,16.70
2018-04-26T15:59:40.740Z,16.70
2018-04-26T16:05:42.818Z,17.80
2018-04-26T16:08:27.761Z,17.80
2018-04-26T16:11:12.914Z,17.50
2018-04-26T16:13:58.015Z,17.20
2018-04-26T16:16:43.981Z,16.60
2018-04-26T16:19:32.982Z,16.50
2018-04-26T16:22:17.885Z,16.50
2018-04-26T16:24:57.984Z,16.10
2018-04-26T16:27:43.390Z,16.10
2018-04-26T16:30:23.292Z,16.50
2018-04-26T16:33:05.422Z,16.70
2018-04-26T16:35:44.708Z,16.70
2018-04-26T16:38:24.014Z,16.30
2018-04-26T16:40:52.228Z,16.40
2018-04-26T16:43:19.691Z,16.40
2018-04-26T16:45:47.153Z,16.90
2018-04-26T16:48:14.602Z,16.40
2018-04-26T16:50:42.055Z,16.50
2018-04-26T16:53:09.502Z,16.60
2018-04-26T16:55:37.732Z,16.50
2018-04-26T16:58:05.171Z,16.50
2018-04-26T17:00:32.624Z,16.70
2018-04-26T17:03:00.066Z,16.80
2018-04-26T17:05:28.297Z,17.60
2018-04-26T17:07:55.744Z,17.60
2018-04-26T17:10:23.208Z,17.00
2018-04-26T17:12:50.663Z,17.30
2018-04-26T17:15:18.175Z,17.30
2018-04-26T17:17:45.596Z,16.50
2018-04-26T17:20:13.834Z,16.80
2018-04-26T17:22:42.051Z,16.70
2018-04-26T17:25:10.355Z,16.60
2018-04-26T17:27:37.816Z,16.30
2018-04-26T17:30:05.265Z,15.80
2018-04-26T17:32:32.699Z,15.50
2018-04-26T17:35:00.151Z,15.30
2018-04-26T17:37:28.404Z,15.30
2018-04-26T17:39:55.858Z,15.30
2018-04-26T17:42:23.363Z,15.20
2018-04-26T17:44:50.744Z,15.30
2018-04-26T17:47:18.198Z,15.40
2018-04-26T17:49:45.648Z,15.20
2018-04-26T17:52:13.103Z,15.30
2018-04-26T17:54:41.313Z,15.50
2018-04-26T17:57:09.534Z,15.30
2018-04-26T17:59:37.000Z,15.30
2018-04-26T18:02:04.437Z,15.50
2018-04-26T18:04:31.935Z,15.20
2018-04-26T18:07:00.154Z,14.80
2018-04-26T18:09:27.696Z,14.80
2018-04-26T18:11:55.082Z,15.10
2018-04-26T18:14:22.521Z,15.30
2018-04-26T18:16:50.008Z,14.90
2018-04-26T18:19:17.449Z,14.80
2018-04-26T18:21:44.887Z,15.00
2018-04-26T18:24:13.087Z,14.80
2018-04-26T18:26:40.523Z,14.80
2018-04-26T18:29:08.744Z,14.40
2018-04-26T18:31:36.216Z,14.40
2018-04-26T18:34:03.653Z,14.50
2018-04-26T18:36:31.109Z,14.60
2018-04-26T18:38:59.452Z,14.80
2018-04-26T18:41:26.908Z,14.70
2018-04-26T18:43:54.354Z,14.70
2018-04-26T18:46:21.801Z,14.50
2018-04-26T18:48:49.263Z,14.30
2018-04-26T18:51:16.729Z,14.30
2018-04-26T18:53:44.144Z,14.30
2018-04-26T18:56:12.361Z,14.30
2018-04-26T18:58:39.812Z,14.30
2018-04-26T19:01:07.256Z,14.00
2018-04-26T19:03:35.455Z,13.80
2018-04-26T19:06:02.922Z,13.80
2018-04-26T19:08:30.352Z,13.60
2018-04-26T19:10:57.807Z,13.80
2018-04-26T19:13:25.244Z,13.90
2018-04-26T19:15:52.680Z,13.60
2018-04-26T19:18:20.144Z,13.60
2018-04-26T19:20:47.592Z,13.30
2018-04-26T19:23:15.042Z,13.30
2018-04-26T19:25:43.249Z,13.10
2018-04-26T19:28:10.707Z,13.10
2018-04-26T19:30:38.148Z,13.30
2018-04-26T19:33:06.378Z,13.20
2018-04-26T19:35:33.820Z,13.20
2018-04-26T19:38:01.298Z,13.10
2018-04-26T19:40:29.246Z,12.90
2018-04-26T19:42:57.011Z,12.90
2018-04-26T19:45:24.465Z,12.90
2018-04-26T19:47:52.702Z,12.80
2018-04-26T19:50:20.152Z,12.80
2018-04-26T19:52:47.614Z,13.10
2018-04-26T19:55:15.096Z,12.90
2018-04-26T19:57:42.620Z,12.50
2018-04-26T20:00:10.027Z,12.40
2018-04-26T20:02:37.484Z,12.50
2018-04-26T20:05:04.953Z,12.70
2018-04-26T20:07:32.414Z,12.40
2018-04-26T20:09:59.875Z,12.10
2018-04-26T20:12:29.504Z,12.20
2018-04-26T20:14:57.818Z,12.00
2018-04-26T20:17:25.268Z,12.00
2018-04-26T20:19:52.718Z,12.00
2018-04-26T20:22:20.927Z,11.90
2018-04-26T20:24:48.390Z,11.90
2018-04-26T20:27:15.851Z,12.10
2018-04-26T20:29:43.300Z,11.90
2018-04-26T20:32:10.740Z,11.80
2018-04-26T20:34:38.957Z,11.70
2018-04-26T20:37:06.394Z,11.70
2018-04-26T20:39:33.852Z,11.60
2018-04-26T20:42:02.109Z,11.90
2018-04-26T20:44:41.298Z,11.90
2018-04-26T20:47:08.755Z,11.70
2018-04-26T20:49:36.204Z,11.90
2018-04-26T20:52:03.677Z,11.80
2018-04-26T20:54:31.120Z,11.40
2018-04-26T20:56:58.578Z,11.40
2018-04-26T20:59:26.805Z,11.30
2018-04-26T21:01:54.232Z,11.30
2018-04-26T21:04:21.728Z,11.20
2018-04-26T21:06:49.941Z,11.30
2018-04-26T21:09:17.396Z,11.30
2018-04-26T21:11:44.846Z,11.40
2018-04-26T21:14:13.141Z,11.40
2018-04-26T21:16:41.264Z,10.90
2018-04-26T21:19:08.706Z,10.90
2018-04-26T21:21:36.972Z,10.80
2018-04-26T21:24:05.184Z,10.70
2018-04-26T21:26:33.401Z,10.80
2018-04-26T21:29:00.834Z,10.70
2018-04-26T21:31:28.326Z,10.70
2018-04-26T21:33:55.805Z,10.60
2018-04-26T21:36:23.268Z,10.80
2018-04-26T21:38:50.715Z,10.90
2018-04-26T21:41:18.934Z,10.90
2018-04-26T21:43:47.152Z,10.70
2018-04-26T21:46:14.593Z,10.70
2018-04-26T21:48:42.042Z,10.60
2018-04-26T21:51:16.024Z,10.50
2018-04-26T21:53:49.207Z,10.50
2018-04-26T21:56:22.418Z,10.60
2018-04-26T21:58:55.594Z,10.70
2018-04-26T22:01:28.816Z,10.70
2018-04-26T22:03:58.799Z,10.80
2018-04-26T22:06:26.257Z,10.80
2018-04-26T22:08:53.685Z,10.60
2018-04-26T22:11:21.143Z,10.30
2018-04-26T22:13:48.588Z,10.20
2018-04-26T22:16:16.843Z,10.10
2018-04-26T22:18:44.932Z,10.10
2018-04-26T22:21:12.471Z,10.00
2018-04-26T22:23:39.924Z,10.10
2018-04-26T22:26:07.412Z,10.30
2018-04-26T22:28:34.863Z,10.40
2018-04-26T22:31:02.300Z,10.20
2018-04-26T22:33:29.758Z,10.10
2018-04-26T22:35:57.208Z,10.00
2018-04-26T22:38:24.664Z,10.10
2018-04-26T22:40:52.120Z,10.00
2018-04-26T22:43:19.584Z,9.90
2018-04-26T22:45:47.043Z,10.00
2018-04-26T22:48:14.480Z,9.90
2018-04-26T22:50:41.914Z,10.00
2018-04-26T22:53:10.144Z,10.00
2018-04-26T22:55:37.627Z,10.00
2018-04-26T22:58:05.063Z,9.80
2018-04-26T23:00:33.255Z,9.60
2018-04-26T23:03:00.708Z,9.60
2018-04-26T23:05:28.941Z,9.60
2018-04-26T23:07:56.368Z,9.60
2018-04-26T23:10:23.805Z,9.60
2018-04-26T23:12:52.045Z,9.40
2018-04-26T23:15:19.576Z,9.40
2018-04-26T23:17:47.025Z,9.60
2018-04-26T23:20:14.499Z,9.50
2018-04-26T23:22:41.972Z,9.50
2018-04-26T23:25:09.415Z,9.40
2018-04-26T23:27:36.859Z,9.70
2018-04-26T23:30:05.064Z,10.00
2018-04-26T23:32:32.514Z,10.00
2018-04-26T23:34:59.962Z,10.10
2018-04-26T23:37:28.173Z,9.40
2018-04-26T23:39:55.607Z,9.40
2018-04-26T23:42:23.064Z,9.30
2018-04-26T23:44:50.512Z,9.20
2018-04-26T23:47:17.960Z,9.10
2018-04-26T23:49:45.414Z,9.00
2018-04-26T23:52:12.861Z,9.10
2018-04-26T23:54:40.288Z,9.10
2018-04-26T23:57:07.744Z,9.40
2018-04-26T23:59:35.187Z,9.50
